createdAt,value
2018-07-24T00:01:26.816Z,2.50
2018-07-24T00:03:55.048Z,3.00
2018-07-24T00:06:23.713Z,2.63
2018-07-24T00:08:52.060Z,2.50
2018-07-24T00:11:20.380Z,2.40
2018-07-24T00:13:48.670Z,2.57
2018-07-24T00:16:16.971Z,2.63
2018-07-24T00:18:45.249Z,2.77
2018-07-24T00:21:13.521Z,2.83
2018-07-24T00:23:41.791Z,2.80
2018-07-24T00:26:10.069Z,2.50
2018-07-24T00:28:38.384Z,2.33
2018-07-24T00:31:07.437Z,2.30
2018-07-24T00:33:35.716Z,2.10
2018-07-24T00:36:03.966Z,2.90
2018-07-24T00:38:31.932Z,2.90
2018-07-24T00:41:00.172Z,2.43
2018-07-24T00:43:28.469Z,2.23
2018-07-24T00:45:56.743Z,2.47
2018-07-24T00:48:25.060Z,2.43
2018-07-24T00:50:53.359Z,2.43
2018-07-24T00:53:21.672Z,2.20
2018-07-24T00:55:49.918Z,2.43
2018-07-24T00:58:18.180Z,2.30
2018-07-24T01:00:46.496Z,2.20
2018-07-24T01:03:14.740Z,2.33
2018-07-24T01:05:42.726Z,2.50
2018-07-24T01:08:10.980Z,2.53
2018-07-24T01:10:39.628Z,2.20
2018-07-24T01:13:07.995Z,2.27
2018-07-24T01:15:36.306Z,2.70
2018-07-24T01:18:04.648Z,2.70
2018-07-24T01:20:33.115Z,2.60
2018-07-24T01:23:01.840Z,2.43
2018-07-24T01:25:30.323Z,2.57
2018-07-24T01:27:58.808Z,2.80
2018-07-24T01:30:27.073Z,2.63
2018-07-24T01:32:55.313Z,2.53
2018-07-24T01:35:23.827Z,2.73
2018-07-24T01:37:51.847Z,2.47
2018-07-24T01:40:20.116Z,2.30
2018-07-24T01:42:48.460Z,2.53
2018-07-24T01:45:16.749Z,2.20
2018-07-24T01:47:45.049Z,2.20
2018-07-24T01:50:13.336Z,2.07
2018-07-24T01:52:41.697Z,2.43
2018-07-24T01:55:10.177Z,2.30
2018-07-24T01:57:38.416Z,2.30
2018-07-24T02:00:07.330Z,2.67
2018-07-24T02:02:35.608Z,2.40
2018-07-24T02:05:03.872Z,2.53
2018-07-24T02:07:32.165Z,2.20
2018-07-24T02:10:00.472Z,2.70
2018-07-24T02:12:28.752Z,2.50
2018-07-24T02:14:57.028Z,2.73
2018-07-24T02:17:25.266Z,2.50
2018-07-24T02:19:53.557Z,2.53
2018-07-24T02:22:21.909Z,2.50
2018-07-24T02:24:50.249Z,2.20
2018-07-24T02:27:18.512Z,2.53
2018-07-24T02:29:46.873Z,2.50
2018-07-24T02:32:15.200Z,2.40
2018-07-24T02:34:43.476Z,2.40
2018-07-24T02:37:11.735Z,2.40
2018-07-24T02:39:39.985Z,2.40
2018-07-24T02:42:08.310Z,2.43
2018-07-24T02:44:36.620Z,2.10
2018-07-24T02:47:05.005Z,2.53
2018-07-24T02:49:33.256Z,2.47
2018-07-24T02:52:01.552Z,2.70
2018-07-24T02:54:29.844Z,2.43
2018-07-24T02:56:58.884Z,2.20
2018-07-24T02:59:27.205Z,2.57
2018-07-24T03:01:55.505Z,2.20
2018-07-24T03:04:23.769Z,2.20
2018-07-24T03:06:51.768Z,2.57
2018-07-24T03:09:20.029Z,2.23
2018-07-24T03:11:48.313Z,2.50
2018-07-24T03:14:16.591Z,2.50
2018-07-24T03:16:44.859Z,2.57
2018-07-24T03:19:13.105Z,2.33
2018-07-24T03:21:41.393Z,2.50
2018-07-24T03:24:09.728Z,2.43
2018-07-24T03:26:38.005Z,2.30
2018-07-24T03:29:06.232Z,2.20
2018-07-24T03:31:34.569Z,2.13
2018-07-24T03:34:02.856Z,2.40
2018-07-24T03:36:31.161Z,2.50
2018-07-24T03:38:59.468Z,1.93
2018-07-24T03:41:27.760Z,2.60
2018-07-24T03:43:55.976Z,2.57
2018-07-24T03:46:24.266Z,2.47
2018-07-24T03:48:52.543Z,2.00
2018-07-24T03:51:20.820Z,2.20
2018-07-24T03:53:49.102Z,2.30
2018-07-24T03:56:17.370Z,2.40
2018-07-24T03:58:45.645Z,2.47
2018-07-24T04:01:13.969Z,2.50
2018-07-24T04:03:42.153Z,2.23
2018-07-24T04:06:13.396Z,2.40
2018-07-24T04:08:41.694Z,2.80
2018-07-24T04:11:09.969Z,2.20
2018-07-24T04:13:38.191Z,2.70
2018-07-24T04:16:06.444Z,2.27
2018-07-24T04:18:38.940Z,2.30
2018-07-24T04:21:07.253Z,2.17
2018-07-24T04:23:35.562Z,2.40
2018-07-24T04:26:03.848Z,2.37
2018-07-24T04:28:32.170Z,2.30
2018-07-24T04:31:00.529Z,2.33
2018-07-24T04:33:28.816Z,2.50
2018-07-24T04:35:57.074Z,2.10
2018-07-24T04:38:25.310Z,2.17
2018-07-24T04:40:53.604Z,2.50
2018-07-24T04:43:21.874Z,2.40
2018-07-24T04:45:50.154Z,2.70
2018-07-24T04:48:18.460Z,2.47
2018-07-24T04:50:46.780Z,2.23
2018-07-24T04:53:15.027Z,2.70
2018-07-24T04:55:43.228Z,2.10
2018-07-24T04:58:11.472Z,2.50
2018-07-24T05:00:39.736Z,2.87
2018-07-24T05:03:07.988Z,2.50
2018-07-24T05:05:36.239Z,2.40
2018-07-24T05:08:04.528Z,2.40
2018-07-24T05:10:32.901Z,2.30
2018-07-24T05:13:01.165Z,2.40
2018-07-24T05:15:29.412Z,2.40
2018-07-24T05:17:57.823Z,2.30
2018-07-24T05:20:26.222Z,2.40
2018-07-24T05:22:55.444Z,2.50
2018-07-24T05:25:23.792Z,2.40
2018-07-24T05:27:52.056Z,2.50
2018-07-24T05:30:20.517Z,2.33
2018-07-24T05:32:48.824Z,2.30
2018-07-24T05:35:17.089Z,2.37
2018-07-24T05:37:45.421Z,2.80
2018-07-24T05:40:13.696Z,2.47
2018-07-24T05:42:41.930Z,2.53
2018-07-24T05:45:10.249Z,2.70
2018-07-24T05:47:38.576Z,2.43
2018-07-24T05:50:07.205Z,2.53
2018-07-24T05:52:35.384Z,2.87
2018-07-24T05:55:03.642Z,2.60
2018-07-24T05:57:31.896Z,2.57
2018-07-24T05:59:59.892Z,3.17
2018-07-24T06:02:28.213Z,2.80
2018-07-24T06:04:56.448Z,2.50
2018-07-24T06:07:24.783Z,2.80
2018-07-24T06:09:53.135Z,2.57
2018-07-24T06:12:21.430Z,2.43
2018-07-24T06:14:49.704Z,2.70
2018-07-24T06:17:17.922Z,3.00
2018-07-24T06:19:46.265Z,3.00
2018-07-24T06:22:14.532Z,2.63
2018-07-24T06:24:43.126Z,2.70
2018-07-24T06:27:11.461Z,2.77
2018-07-24T06:29:39.455Z,3.03
2018-07-24T06:32:07.881Z,2.80
2018-07-24T06:34:36.188Z,2.70
2018-07-24T06:37:04.465Z,2.90
2018-07-24T06:39:32.771Z,2.73
2018-07-24T06:42:01.002Z,2.60
2018-07-24T06:44:29.303Z,3.00
2018-07-24T06:46:57.561Z,2.37
2018-07-24T06:49:25.834Z,2.80
2018-07-24T06:51:54.184Z,2.63
2018-07-24T06:54:22.437Z,2.70
2018-07-24T06:56:50.675Z,2.60
2018-07-24T06:59:18.953Z,2.57
2018-07-24T07:01:47.239Z,2.97
2018-07-24T07:04:15.520Z,2.83
2018-07-24T07:06:43.802Z,2.63
2018-07-24T07:09:12.068Z,2.80
2018-07-24T07:11:40.325Z,2.90
2018-07-24T07:14:08.617Z,2.30
2018-07-24T07:16:36.940Z,2.70
2018-07-24T07:19:05.247Z,2.80
2018-07-24T07:21:33.456Z,2.70
2018-07-24T07:24:01.639Z,2.50
2018-07-24T07:26:29.872Z,2.57
2018-07-24T07:28:58.192Z,2.40
2018-07-24T07:31:26.420Z,3.00
2018-07-24T07:33:54.740Z,2.90
2018-07-24T07:36:23.052Z,2.50
2018-07-24T07:38:51.340Z,2.47
2018-07-24T07:41:19.625Z,2.63
2018-07-24T07:43:47.628Z,2.43
2018-07-24T07:46:15.903Z,2.60
2018-07-24T07:48:43.952Z,2.50
2018-07-24T07:51:12.211Z,2.40
2018-07-24T07:53:40.532Z,2.57
2018-07-24T07:56:08.816Z,2.70
2018-07-24T07:58:37.154Z,2.40
2018-07-24T08:01:05.409Z,2.63
2018-07-24T08:03:33.664Z,2.50
2018-07-24T08:06:01.899Z,2.40
2018-07-24T08:08:29.861Z,2.40
2018-07-24T08:10:58.128Z,2.43
2018-07-24T08:13:26.401Z,2.27
2018-07-24T08:15:54.700Z,2.37
2018-07-24T08:18:22.997Z,2.87
2018-07-24T08:20:51.236Z,2.50
2018-07-24T08:23:19.494Z,2.10
2018-07-24T08:25:47.780Z,2.30
2018-07-24T08:28:16.120Z,2.20
2018-07-24T08:30:44.277Z,2.30
2018-07-24T08:33:12.540Z,2.10
2018-07-24T08:35:40.852Z,2.20
2018-07-24T08:38:08.849Z,2.23
2018-07-24T08:40:36.900Z,2.30
2018-07-24T08:43:05.208Z,2.37
2018-07-24T08:45:33.293Z,2.30
2018-07-24T08:48:01.527Z,1.97
2018-07-24T08:50:29.825Z,2.07
2018-07-24T08:52:58.228Z,2.27
2018-07-24T08:55:26.596Z,2.40
2018-07-24T08:57:54.672Z,2.33
2018-07-24T09:00:22.933Z,2.10
2018-07-24T09:02:50.903Z,2.30
2018-07-24T09:05:19.193Z,2.10
2018-07-24T09:07:47.440Z,1.97
2018-07-24T09:10:15.791Z,1.80
2018-07-24T09:12:44.039Z,2.07
2018-07-24T09:15:12.341Z,2.20
2018-07-24T09:17:40.635Z,2.33
2018-07-24T09:20:08.854Z,2.33
2018-07-24T09:22:37.129Z,1.83
2018-07-24T09:25:05.139Z,2.10
2018-07-24T09:27:33.414Z,2.03
2018-07-24T09:30:01.746Z,1.70
2018-07-24T09:32:30.044Z,1.73
2018-07-24T09:34:58.366Z,1.80
2018-07-24T09:37:26.656Z,2.27
2018-07-24T09:39:54.631Z,2.40
2018-07-24T09:42:22.875Z,1.83
2018-07-24T09:44:51.173Z,2.10
2018-07-24T09:47:19.414Z,1.77
2018-07-24T09:49:47.616Z,1.80
2018-07-24T09:52:15.897Z,2.03
2018-07-24T09:54:44.208Z,1.80
2018-07-24T09:57:12.405Z,1.60
2018-07-24T09:59:40.673Z,1.77
2018-07-24T10:02:08.919Z,2.47
2018-07-24T10:04:37.189Z,2.10
2018-07-24T10:07:05.425Z,1.97
2018-07-24T10:09:33.703Z,1.83
2018-07-24T10:12:02.016Z,1.90
2018-07-24T10:14:30.260Z,2.00
2018-07-24T10:16:58.531Z,1.67
2018-07-24T10:19:26.780Z,1.57
2018-07-24T10:21:55.069Z,1.90
2018-07-24T10:24:23.302Z,1.70
2018-07-24T10:26:51.595Z,1.80
2018-07-24T10:29:20.067Z,1.90
2018-07-24T10:31:48.349Z,1.73
2018-07-24T10:34:16.548Z,2.00
2018-07-24T10:36:44.824Z,1.87
2018-07-24T10:39:13.081Z,1.97
2018-07-24T10:41:41.524Z,1.90
2018-07-24T10:44:09.846Z,1.50
2018-07-24T10:46:38.617Z,1.93
2018-07-24T10:49:07.132Z,1.80
2018-07-24T10:51:35.412Z,1.83
2018-07-24T10:54:03.636Z,2.00
2018-07-24T10:56:32.373Z,1.93
2018-07-24T10:59:00.613Z,1.83
2018-07-24T11:01:28.852Z,1.87
2018-07-24T11:03:57.360Z,1.63
2018-07-24T11:06:25.782Z,1.80
2018-07-24T11:08:54.309Z,1.87
2018-07-24T11:11:22.537Z,1.77
2018-07-24T11:13:51.049Z,1.70
2018-07-24T11:16:19.354Z,2.00
2018-07-24T11:18:47.696Z,1.90
2018-07-24T11:21:15.965Z,2.00
2018-07-24T11:23:44.208Z,1.67
2018-07-24T11:26:12.497Z,1.57
2018-07-24T11:28:40.773Z,1.80
2018-07-24T11:31:09.024Z,1.60
2018-07-24T11:33:38.486Z,1.70
2018-07-24T11:36:07.074Z,1.73
2018-07-24T11:38:35.243Z,1.80
2018-07-24T11:41:03.534Z,1.60
2018-07-24T11:43:31.752Z,1.60
2018-07-24T11:46:00.030Z,1.53
2018-07-24T11:48:28.309Z,1.70
2018-07-24T11:50:56.563Z,1.77
2018-07-24T11:53:26.098Z,2.10
2018-07-24T11:55:54.433Z,1.57
2018-07-24T11:58:23.542Z,1.57
2018-07-24T12:00:51.805Z,1.70
2018-07-24T12:03:20.099Z,1.33
2018-07-24T12:05:48.238Z,1.63
2018-07-24T12:08:16.654Z,1.60
2018-07-24T12:10:44.910Z,1.50
2018-07-24T12:13:13.188Z,1.50
2018-07-24T12:15:42.198Z,1.47
2018-07-24T12:18:10.451Z,1.60
2018-07-24T12:20:39.484Z,1.40
2018-07-24T12:23:07.797Z,1.50
2018-07-24T12:25:36.152Z,1.50
2018-07-24T12:28:04.487Z,1.90
2018-07-24T12:30:33.123Z,1.60
2018-07-24T12:33:02.522Z,1.77
2018-07-24T12:35:33.061Z,1.50
2018-07-24T12:38:01.504Z,1.70
2018-07-24T12:40:30.744Z,1.57
2018-07-24T12:42:59.248Z,1.30
2018-07-24T12:45:27.648Z,1.40
2018-07-24T12:47:56.049Z,1.40
2018-07-24T12:50:25.164Z,1.50
2018-07-24T12:52:53.844Z,1.50
2018-07-24T12:55:22.334Z,1.40
2018-07-24T12:57:50.752Z,1.50
2018-07-24T13:00:19.108Z,1.47
2018-07-24T13:02:47.505Z,1.47
2018-07-24T13:05:16.682Z,1.50
2018-07-24T13:07:44.843Z,1.10
2018-07-24T13:10:18.101Z,1.40
2018-07-24T13:12:46.546Z,1.23
2018-07-24T13:15:14.923Z,1.47
2018-07-24T13:17:43.324Z,1.30
2018-07-24T13:20:11.725Z,1.33
2018-07-24T13:22:39.799Z,1.40
2018-07-24T13:25:08.134Z,1.40
2018-07-24T13:27:36.573Z,1.50
2018-07-24T13:30:05.360Z,1.50
2018-07-24T13:32:33.665Z,1.40
2018-07-24T13:35:01.750Z,1.33
2018-07-24T13:37:30.177Z,1.40
2018-07-24T13:39:58.500Z,1.30
2018-07-24T13:42:26.848Z,1.60
2018-07-24T13:44:55.082Z,1.40
2018-07-24T13:47:23.329Z,1.33
2018-07-24T13:49:53.010Z,1.50
2018-07-24T13:52:22.638Z,1.60
2018-07-24T13:54:53.599Z,1.30
2018-07-24T13:57:22.929Z,1.30
2018-07-24T13:59:52.272Z,1.47
2018-07-24T14:02:20.698Z,1.43
2018-07-24T14:04:49.129Z,1.40
2018-07-24T14:07:17.528Z,1.37
2018-07-24T14:09:46.075Z,1.50
2018-07-24T14:12:14.398Z,1.37
2018-07-24T14:14:42.778Z,2.10
2018-07-24T14:17:11.087Z,1.43
2018-07-24T14:19:39.492Z,1.57
2018-07-24T14:22:08.445Z,1.43
2018-07-24T14:24:38.201Z,1.47
2018-07-24T14:27:06.430Z,1.40
2018-07-24T14:29:34.718Z,1.43
2018-07-24T14:32:02.957Z,1.70
2018-07-24T14:34:30.930Z,1.57
2018-07-24T14:36:59.204Z,1.60
2018-07-24T14:39:27.316Z,1.40
2018-07-24T14:41:55.541Z,1.50
2018-07-24T14:44:23.809Z,1.80
2018-07-24T14:46:52.000Z,1.40
2018-07-24T14:49:20.243Z,1.40
2018-07-24T14:51:48.525Z,1.70
2018-07-24T14:54:16.784Z,1.60
2018-07-24T14:56:44.986Z,1.77
2018-07-24T14:59:14.075Z,1.60
2018-07-24T15:01:42.321Z,1.80
2018-07-24T15:04:11.050Z,1.60
2018-07-24T15:06:39.308Z,1.80
2018-07-24T15:09:09.071Z,1.63
2018-07-24T15:11:37.334Z,1.77
2018-07-24T15:14:05.640Z,2.23
2018-07-24T15:16:33.864Z,1.77
2018-07-24T15:19:02.164Z,1.83
2018-07-24T15:21:30.439Z,1.83
2018-07-24T15:23:58.626Z,1.80
2018-07-24T15:26:26.852Z,1.90
2018-07-24T15:28:54.973Z,1.83
2018-07-24T15:31:23.088Z,1.90
2018-07-24T15:33:54.485Z,1.77
2018-07-24T15:36:24.127Z,2.20
2018-07-24T15:38:54.297Z,1.93
2018-07-24T15:41:22.639Z,1.90
2018-07-24T15:43:50.801Z,2.40
2018-07-24T15:46:19.798Z,2.10
2018-07-24T15:48:49.469Z,1.90
2018-07-24T15:51:17.716Z,2.10
2018-07-24T15:53:46.129Z,2.30
2018-07-24T15:56:14.445Z,2.10
2018-07-24T15:58:42.724Z,2.07
2018-07-24T16:01:10.928Z,2.10
2018-07-24T16:03:39.152Z,2.10
2018-07-24T16:06:07.431Z,1.90
2018-07-24T16:08:35.746Z,2.20
2018-07-24T16:11:03.972Z,2.50
2018-07-24T16:13:32.237Z,2.50
2018-07-24T16:16:00.547Z,2.20
2018-07-24T16:18:28.787Z,2.50
2018-07-24T16:20:57.037Z,2.27
2018-07-24T16:23:25.252Z,2.73
2018-07-24T16:25:53.564Z,2.57
2018-07-24T16:28:21.551Z,2.50
2018-07-24T16:30:49.770Z,3.10
2018-07-24T16:33:18.048Z,2.77
2018-07-24T16:35:46.349Z,2.80
2018-07-24T16:38:14.659Z,3.10
2018-07-24T16:40:43.028Z,3.73
2018-07-24T16:43:11.312Z,3.70
2018-07-24T16:45:39.620Z,3.50
2018-07-24T16:48:07.864Z,3.70
2018-07-24T16:50:35.800Z,3.77
2018-07-24T16:53:04.025Z,4.30
2018-07-24T16:55:32.236Z,4.20
2018-07-24T16:58:00.519Z,4.10
2018-07-24T17:00:28.952Z,4.17
2018-07-24T17:02:57.220Z,4.00
2018-07-24T17:05:25.488Z,4.57
2018-07-24T17:07:53.795Z,4.03
2018-07-24T17:10:22.079Z,3.87
2018-07-24T17:12:50.268Z,4.20
2018-07-24T17:15:18.600Z,4.07
2018-07-24T17:17:46.866Z,4.03
2018-07-24T17:20:15.135Z,4.20
2018-07-24T17:22:43.423Z,3.93
2018-07-24T17:25:11.701Z,4.60
2018-07-24T17:27:39.680Z,3.80
2018-07-24T17:30:07.944Z,4.17
2018-07-24T17:32:36.196Z,4.30
2018-07-24T17:35:04.460Z,4.30
2018-07-24T17:37:32.741Z,3.90
2018-07-24T17:40:01.020Z,4.33
2018-07-24T17:42:29.018Z,3.93
2018-07-24T17:44:57.313Z,3.90
2018-07-24T17:47:25.601Z,3.60
2018-07-24T17:49:53.872Z,4.10
2018-07-24T17:52:22.245Z,4.50
2018-07-24T17:54:50.531Z,3.87
2018-07-24T17:57:18.863Z,3.37
2018-07-24T17:59:47.174Z,3.90
2018-07-24T18:02:15.412Z,4.20
2018-07-24T18:04:43.444Z,4.00
2018-07-24T18:07:11.869Z,3.70
2018-07-24T18:09:40.134Z,3.70
2018-07-24T18:12:08.415Z,4.07
2018-07-24T18:14:36.757Z,3.80
2018-07-24T18:17:04.790Z,3.70
2018-07-24T18:19:33.054Z,3.80
2018-07-24T18:22:01.470Z,3.90
2018-07-24T18:24:29.710Z,4.23
2018-07-24T18:26:57.754Z,4.00
2018-07-24T18:29:26.060Z,4.20
2018-07-24T18:31:54.373Z,3.70
2018-07-24T18:34:22.440Z,3.73
2018-07-24T18:36:50.940Z,4.13
2018-07-24T18:39:19.228Z,3.90
2018-07-24T18:41:47.748Z,3.87
2018-07-24T18:44:16.034Z,3.87
2018-07-24T18:46:44.312Z,3.70
2018-07-24T18:49:12.649Z,3.60
2018-07-24T18:51:40.920Z,3.50
2018-07-24T18:54:09.263Z,4.30
2018-07-24T18:56:37.541Z,4.67
2018-07-24T18:59:06.218Z,4.03
2018-07-24T19:01:34.612Z,3.50
2018-07-24T19:04:02.932Z,4.23
2018-07-24T19:06:31.333Z,4.00
2018-07-24T19:08:59.697Z,4.00
2018-07-24T19:11:28.095Z,4.23
2018-07-24T19:13:56.493Z,3.97
2018-07-24T19:16:24.903Z,4.30
2018-07-24T19:18:53.215Z,3.90
2018-07-24T19:21:21.505Z,4.80
2018-07-24T19:23:49.823Z,3.97
2018-07-24T19:26:18.173Z,4.20
2018-07-24T19:28:46.243Z,4.10
2018-07-24T19:31:14.613Z,4.40
2018-07-24T19:33:42.912Z,4.30
2018-07-24T19:36:11.289Z,3.97
2018-07-24T19:38:39.581Z,4.50
2018-07-24T19:41:08.066Z,4.47
2018-07-24T19:43:36.372Z,4.00
2018-07-24T19:46:04.743Z,4.27
2018-07-24T19:48:33.032Z,4.30
2018-07-24T19:51:01.329Z,4.70
2018-07-24T19:53:29.644Z,4.90
2018-07-24T19:55:58.044Z,5.40
2018-07-24T19:58:26.261Z,8.17
2018-07-24T20:00:54.597Z,4.60
2018-07-24T20:03:22.894Z,5.13
2018-07-24T20:05:51.178Z,4.60
2018-07-24T20:08:19.421Z,4.93
2018-07-24T20:10:47.702Z,4.67
2018-07-24T20:13:15.964Z,4.57
2018-07-24T20:15:44.188Z,4.20
2018-07-24T20:18:12.649Z,4.53
2018-07-24T20:20:40.930Z,4.17
2018-07-24T20:23:08.982Z,3.90
2018-07-24T20:25:37.272Z,4.73
2018-07-24T20:28:05.656Z,4.23
2018-07-24T20:30:33.972Z,4.13
2018-07-24T20:33:02.099Z,4.30
2018-07-24T20:35:30.678Z,4.47
2018-07-24T20:37:58.852Z,4.33
2018-07-24T20:40:27.176Z,4.47
2018-07-24T20:42:55.621Z,4.10
2018-07-24T20:45:41.662Z,3.70
2018-07-24T20:48:11.126Z,4.13
2018-07-24T20:50:39.392Z,4.53
2018-07-24T20:53:07.689Z,3.90
2018-07-24T20:55:36.058Z,4.27
2018-07-24T20:58:08.297Z,4.27
2018-07-24T21:00:41.569Z,4.20
2018-07-24T21:03:14.542Z,3.90
2018-07-24T21:05:42.829Z,4.50
2018-07-24T21:08:11.805Z,4.40
2018-07-24T21:10:41.351Z,4.20
2018-07-24T21:13:12.659Z,4.80
2018-07-24T21:15:43.040Z,5.30
2018-07-24T21:18:13.110Z,5.10
2018-07-24T21:20:41.435Z,4.53
2018-07-24T21:23:09.733Z,10.47
2018-07-24T21:25:37.997Z,11.47
2018-07-24T21:28:06.360Z,9.80
2018-07-24T21:30:34.688Z,5.50
2018-07-24T21:33:03.068Z,5.10
2018-07-24T21:35:31.408Z,4.77
2018-07-24T21:37:59.878Z,4.33
2018-07-24T21:40:28.158Z,4.67
2018-07-24T21:42:56.522Z,4.33
2018-07-24T21:45:24.743Z,4.77
2018-07-24T21:47:52.800Z,5.10
2018-07-24T21:50:21.091Z,4.70
2018-07-24T21:52:49.380Z,4.67
2018-07-24T21:55:17.643Z,5.33
2018-07-24T21:57:45.936Z,4.53
2018-07-24T22:00:14.310Z,4.83
2018-07-24T22:02:42.568Z,5.30
2018-07-24T22:05:10.844Z,4.70
2018-07-24T22:07:39.085Z,5.23
2018-07-24T22:10:11.535Z,4.97
2018-07-24T22:12:39.801Z,4.63
2018-07-24T22:15:16.464Z,5.57
2018-07-24T22:17:44.792Z,5.70
2018-07-24T22:20:13.028Z,5.37
2018-07-24T22:22:41.248Z,5.17
2018-07-24T22:25:09.516Z,14.20
2018-07-24T22:27:37.820Z,8.53
2018-07-24T22:30:06.570Z,5.73
2018-07-24T22:32:34.940Z,5.90
2018-07-24T22:35:02.958Z,5.00
2018-07-24T22:37:31.314Z,6.27
2018-07-24T22:39:59.580Z,5.60
2018-07-24T22:42:27.911Z,5.30
2018-07-24T22:44:56.284Z,5.23
2018-07-24T22:47:24.597Z,5.70
2018-07-24T22:49:52.899Z,5.47
2018-07-24T22:52:21.162Z,5.63
2018-07-24T22:54:49.324Z,5.60
2018-07-24T22:57:17.656Z,5.60
2018-07-24T22:59:45.992Z,5.80
2018-07-24T23:02:14.348Z,6.00
2018-07-24T23:04:42.552Z,5.63
2018-07-24T23:07:10.777Z,5.93
2018-07-24T23:09:38.979Z,6.20
2018-07-24T23:12:07.211Z,5.47
2018-07-24T23:14:35.490Z,5.57
2018-07-24T23:17:03.732Z,6.03
2018-07-24T23:19:32.041Z,6.03
2018-07-24T23:22:00.318Z,5.70
2018-07-24T23:24:28.568Z,5.80
2018-07-24T23:26:56.920Z,5.63
2018-07-24T23:29:25.216Z,5.97
2018-07-24T23:31:53.510Z,6.00
2018-07-24T23:34:21.780Z,6.10
2018-07-24T23:36:50.023Z,5.37
2018-07-24T23:39:18.286Z,5.33
2018-07-24T23:41:46.508Z,5.80
2018-07-24T23:44:14.848Z,5.80
2018-07-24T23:46:43.103Z,5.83
2018-07-24T23:49:11.762Z,6.27
2018-07-24T23:51:40.102Z,5.70
2018-07-24T23:54:08.336Z,5.00
2018-07-24T23:56:36.617Z,6.10
2018-07-24T23:59:04.947Z,5.60
